sensor_id;sensor_type;location;lat;lon;timestamp;P1;durP1;ratioP1;P2;durP2;ratioP2
46040;SDS011;31779;49.124;19.190;2022-12-07T00:01:35;29.52;;;18.15;;
46040;SDS011;31779;49.124;19.190;2022-12-07T00:04:09;37.00;;;22.35;;
46040;SDS011;31779;49.124;19.190;2022-12-07T00:06:40;21.63;;;14.85;;
46040;SDS011;31779;49.124;19.190;2022-12-07T00:09:11;26.17;;;17.55;;
46040;SDS011;31779;49.124;19.190;2022-12-07T00:11:40;24.20;;;14.18;;
46040;SDS011;31779;49.124;19.190;2022-12-07T00:14:13;24.23;;;17.10;;
46040;SDS011;31779;49.124;19.190;2022-12-07T00:16:42;27.80;;;19.33;;
46040;SDS011;31779;49.124;19.190;2022-12-07T00:19:12;28.77;;;19.25;;
46040;SDS011;31779;49.124;19.190;2022-12-07T00:21:41;27.23;;;20.25;;
46040;SDS011;31779;49.124;19.190;2022-12-07T00:24:09;22.13;;;16.25;;
46040;SDS011;31779;49.124;19.190;2022-12-07T00:26:38;24.67;;;19.13;;
46040;SDS011;31779;49.124;19.190;2022-12-07T00:29:15;23.95;;;16.00;;
46040;SDS011;31779;49.124;19.190;2022-12-07T00:31:45;20.30;;;13.70;;
46040;SDS011;31779;49.124;19.190;2022-12-07T00:34:18;15.88;;;12.60;;
46040;SDS011;31779;49.124;19.190;2022-12-07T00:36:47;20.65;;;13.75;;
46040;SDS011;31779;49.124;19.190;2022-12-07T00:39:16;22.08;;;14.40;;
46040;SDS011;31779;49.124;19.190;2022-12-07T00:41:44;16.65;;;11.32;;
46040;SDS011;31779;49.124;19.190;2022-12-07T00:44:12;15.43;;;12.25;;
46040;SDS011;31779;49.124;19.190;2022-12-07T00:46:40;15.43;;;12.73;;
46040;SDS011;31779;49.124;19.190;2022-12-07T00:49:08;16.70;;;11.85;;
46040;SDS011;31779;49.124;19.190;2022-12-07T00:51:36;16.35;;;11.48;;
46040;SDS011;31779;49.124;19.190;2022-12-07T00:54:04;14.50;;;11.30;;
46040;SDS011;31779;49.124;19.190;2022-12-07T00:56:31;16.88;;;13.23;;
46040;SDS011;31779;49.124;19.190;2022-12-07T00:59:00;13.38;;;11.63;;
46040;SDS011;31779;49.124;19.190;2022-12-07T01:01:31;15.00;;;11.27;;
46040;SDS011;31779;49.124;19.190;2022-12-07T01:04:01;15.18;;;10.90;;
46040;SDS011;31779;49.124;19.190;2022-12-07T01:06:29;16.05;;;12.38;;
46040;SDS011;31779;49.124;19.190;2022-12-07T01:08:58;18.23;;;13.60;;
46040;SDS011;31779;49.124;19.190;2022-12-07T01:11:28;16.98;;;12.23;;
46040;SDS011;31779;49.124;19.190;2022-12-07T01:13:58;17.52;;;13.52;;
46040;SDS011;31779;49.124;19.190;2022-12-07T01:16:28;14.20;;;10.60;;
46040;SDS011;31779;49.124;19.190;2022-12-07T01:21:28;12.15;;;10.95;;
46040;SDS011;31779;49.124;19.190;2022-12-07T01:23:57;14.80;;;10.82;;
46040;SDS011;31779;49.124;19.190;2022-12-07T01:26:25;13.10;;;10.85;;
46040;SDS011;31779;49.124;19.190;2022-12-07T01:28:54;19.15;;;14.52;;
46040;SDS011;31779;49.124;19.190;2022-12-07T01:31:23;17.85;;;13.68;;
46040;SDS011;31779;49.124;19.190;2022-12-07T01:33:54;20.58;;;13.05;;
46040;SDS011;31779;49.124;19.190;2022-12-07T01:39:00;16.40;;;12.48;;
46040;SDS011;31779;49.124;19.190;2022-12-07T01:41:31;17.63;;;14.20;;
46040;SDS011;31779;49.124;19.190;2022-12-07T01:46:34;11.23;;;9.02;;
46040;SDS011;31779;49.124;19.190;2022-12-07T01:49:03;20.33;;;14.30;;
46040;SDS011;31779;49.124;19.190;2022-12-07T01:51:35;30.85;;;19.67;;
46040;SDS011;31779;49.124;19.190;2022-12-07T01:54:05;17.90;;;13.10;;
46040;SDS011;31779;49.124;19.190;2022-12-07T01:56:33;18.92;;;13.50;;
46040;SDS011;31779;49.124;19.190;2022-12-07T01:59:02;22.40;;;14.52;;
46040;SDS011;31779;49.124;19.190;2022-12-07T02:01:30;22.27;;;14.93;;
46040;SDS011;31779;49.124;19.190;2022-12-07T02:03:58;17.88;;;12.80;;
46040;SDS011;31779;49.124;19.190;2022-12-07T02:06:26;22.77;;;15.00;;
46040;SDS011;31779;49.124;19.190;2022-12-07T02:08:54;18.75;;;14.93;;
46040;SDS011;31779;49.124;19.190;2022-12-07T02:11:22;17.83;;;14.60;;
46040;SDS011;31779;49.124;19.190;2022-12-07T02:13:50;22.17;;;16.30;;
46040;SDS011;31779;49.124;19.190;2022-12-07T02:16:31;17.33;;;13.93;;
46040;SDS011;31779;49.124;19.190;2022-12-07T02:21:52;16.92;;;12.43;;
46040;SDS011;31779;49.124;19.190;2022-12-07T02:25:14;13.65;;;11.63;;
46040;SDS011;31779;49.124;19.190;2022-12-07T02:30:42;10.85;;;9.43;;
46040;SDS011;31779;49.124;19.190;2022-12-07T02:33:16;13.07;;;10.25;;
46040;SDS011;31779;49.124;19.190;2022-12-07T02:36:04;12.38;;;11.00;;
46040;SDS011;31779;49.124;19.190;2022-12-07T02:38:43;14.65;;;12.75;;
46040;SDS011;31779;49.124;19.190;2022-12-07T02:41:24;13.80;;;12.13;;
46040;SDS011;31779;49.124;19.190;2022-12-07T02:44:13;16.58;;;14.80;;
46040;SDS011;31779;49.124;19.190;2022-12-07T02:46:49;18.55;;;14.30;;
46040;SDS011;31779;49.124;19.190;2022-12-07T02:49:22;16.77;;;13.27;;
46040;SDS011;31779;49.124;19.190;2022-12-07T02:51:51;15.60;;;13.18;;
46040;SDS011;31779;49.124;19.190;2022-12-07T02:54:20;16.40;;;14.45;;
46040;SDS011;31779;49.124;19.190;2022-12-07T03:10:51;13.75;;;12.25;;
46040;SDS011;31779;49.124;19.190;2022-12-07T03:13:38;15.05;;;13.25;;
46040;SDS011;31779;49.124;19.190;2022-12-07T03:18:48;12.93;;;11.45;;
46040;SDS011;31779;49.124;19.190;2022-12-07T03:22:11;13.30;;;11.85;;
46040;SDS011;31779;49.124;19.190;2022-12-07T03:24:45;14.35;;;12.45;;
46040;SDS011;31779;49.124;19.190;2022-12-07T03:27:37;13.38;;;11.65;;
46040;SDS011;31779;49.124;19.190;2022-12-07T03:30:17;15.73;;;12.38;;
46040;SDS011;31779;49.124;19.190;2022-12-07T03:32:52;18.13;;;13.35;;
46040;SDS011;31779;49.124;19.190;2022-12-07T03:35:34;13.45;;;11.07;;
46040;SDS011;31779;49.124;19.190;2022-12-07T03:38:21;15.68;;;13.25;;
46040;SDS011;31779;49.124;19.190;2022-12-07T03:41:01;15.35;;;12.02;;
46040;SDS011;31779;49.124;19.190;2022-12-07T03:43:46;13.57;;;12.23;;
46040;SDS011;31779;49.124;19.190;2022-12-07T03:48:49;11.02;;;8.85;;
46040;SDS011;31779;49.124;19.190;2022-12-07T03:51:28;11.75;;;9.88;;
46040;SDS011;31779;49.124;19.190;2022-12-07T03:54:24;11.70;;;10.13;;
46040;SDS011;31779;49.124;19.190;2022-12-07T03:56:56;13.35;;;10.73;;
46040;SDS011;31779;49.124;19.190;2022-12-07T03:59:25;12.73;;;11.10;;
46040;SDS011;31779;49.124;19.190;2022-12-07T04:01:56;12.43;;;10.77;;
46040;SDS011;31779;49.124;19.190;2022-12-07T04:04:29;13.88;;;12.35;;
46040;SDS011;31779;49.124;19.190;2022-12-07T04:06:57;14.65;;;13.00;;
46040;SDS011;31779;49.124;19.190;2022-12-07T04:09:25;13.48;;;12.07;;
46040;SDS011;31779;49.124;19.190;2022-12-07T04:11:53;18.48;;;14.70;;
46040;SDS011;31779;49.124;19.190;2022-12-07T04:14:21;15.57;;;12.43;;
46040;SDS011;31779;49.124;19.190;2022-12-07T04:16:50;15.40;;;12.05;;
46040;SDS011;31779;49.124;19.190;2022-12-07T04:19:20;17.60;;;14.18;;
46040;SDS011;31779;49.124;19.190;2022-12-07T04:21:50;13.57;;;11.82;;
46040;SDS011;31779;49.124;19.190;2022-12-07T04:24:17;11.48;;;10.30;;
46040;SDS011;31779;49.124;19.190;2022-12-07T04:26:46;13.52;;;11.77;;
46040;SDS011;31779;49.124;19.190;2022-12-07T04:29:15;12.35;;;9.85;;
46040;SDS011;31779;49.124;19.190;2022-12-07T04:31:43;14.55;;;10.68;;
46040;SDS011;31779;49.124;19.190;2022-12-07T04:34:15;13.88;;;11.25;;
46040;SDS011;31779;49.124;19.190;2022-12-07T04:36:44;14.10;;;12.10;;
46040;SDS011;31779;49.124;19.190;2022-12-07T04:39:22;13.70;;;11.93;;
46040;SDS011;31779;49.124;19.190;2022-12-07T04:41:55;16.38;;;13.60;;
46040;SDS011;31779;49.124;19.190;2022-12-07T04:44:24;17.73;;;13.55;;
46040;SDS011;31779;49.124;19.190;2022-12-07T04:46:53;15.38;;;11.98;;
46040;SDS011;31779;49.124;19.190;2022-12-07T04:49:21;21.00;;;13.25;;
46040;SDS011;31779;49.124;19.190;2022-12-07T04:51:50;18.25;;;12.93;;
46040;SDS011;31779;49.124;19.190;2022-12-07T04:54:18;15.35;;;13.15;;
46040;SDS011;31779;49.124;19.190;2022-12-07T04:56:46;15.05;;;12.93;;
46040;SDS011;31779;49.124;19.190;2022-12-07T04:59:15;15.40;;;12.60;;
46040;SDS011;31779;49.124;19.190;2022-12-07T05:01:44;17.98;;;13.48;;
46040;SDS011;31779;49.124;19.190;2022-12-07T05:04:12;17.40;;;13.60;;
46040;SDS011;31779;49.124;19.190;2022-12-07T05:06:40;18.85;;;15.13;;
46040;SDS011;31779;49.124;19.190;2022-12-07T05:09:08;19.05;;;14.38;;
46040;SDS011;31779;49.124;19.190;2022-12-07T05:11:36;14.77;;;12.80;;
46040;SDS011;31779;49.124;19.190;2022-12-07T05:14:08;17.35;;;13.32;;
46040;SDS011;31779;49.124;19.190;2022-12-07T05:16:59;15.75;;;11.95;;
46040;SDS011;31779;49.124;19.190;2022-12-07T05:19:27;15.02;;;11.40;;
46040;SDS011;31779;49.124;19.190;2022-12-07T05:21:55;13.68;;;11.35;;
46040;SDS011;31779;49.124;19.190;2022-12-07T05:24:23;15.05;;;12.02;;
46040;SDS011;31779;49.124;19.190;2022-12-07T05:26:51;15.38;;;12.13;;
46040;SDS011;31779;49.124;19.190;2022-12-07T05:29:19;15.65;;;11.73;;
46040;SDS011;31779;49.124;19.190;2022-12-07T05:31:47;14.23;;;12.75;;
46040;SDS011;31779;49.124;19.190;2022-12-07T05:34:15;14.32;;;10.95;;
46040;SDS011;31779;49.124;19.190;2022-12-07T05:36:43;14.05;;;11.85;;
46040;SDS011;31779;49.124;19.190;2022-12-07T05:39:10;13.25;;;10.98;;
46040;SDS011;31779;49.124;19.190;2022-12-07T05:41:38;15.75;;;12.30;;
46040;SDS011;31779;49.124;19.190;2022-12-07T05:44:25;12.75;;;10.95;;
46040;SDS011;31779;49.124;19.190;2022-12-07T05:46:53;10.90;;;9.57;;
46040;SDS011;31779;49.124;19.190;2022-12-07T05:49:21;10.15;;;9.15;;
46040;SDS011;31779;49.124;19.190;2022-12-07T05:51:49;13.40;;;10.80;;
46040;SDS011;31779;49.124;19.190;2022-12-07T05:54:17;12.25;;;9.18;;
46040;SDS011;31779;49.124;19.190;2022-12-07T05:56:45;11.73;;;9.77;;
46040;SDS011;31779;49.124;19.190;2022-12-07T05:59:13;10.10;;;8.85;;
46040;SDS011;31779;49.124;19.190;2022-12-07T06:04:32;12.75;;;10.35;;
46040;SDS011;31779;49.124;19.190;2022-12-07T06:07:01;10.63;;;9.52;;
46040;SDS011;31779;49.124;19.190;2022-12-07T06:09:30;11.35;;;10.15;;
46040;SDS011;31779;49.124;19.190;2022-12-07T06:11:59;13.73;;;11.25;;
46040;SDS011;31779;49.124;19.190;2022-12-07T06:14:46;17.33;;;14.00;;
46040;SDS011;31779;49.124;19.190;2022-12-07T06:17:13;13.63;;;9.85;;
46040;SDS011;31779;49.124;19.190;2022-12-07T06:19:42;11.15;;;9.25;;
46040;SDS011;31779;49.124;19.190;2022-12-07T06:22:10;20.58;;;14.60;;
46040;SDS011;31779;49.124;19.190;2022-12-07T06:24:39;49.38;;;26.83;;
46040;SDS011;31779;49.124;19.190;2022-12-07T06:27:08;34.20;;;18.63;;
46040;SDS011;31779;49.124;19.190;2022-12-07T06:29:37;34.58;;;19.52;;
46040;SDS011;31779;49.124;19.190;2022-12-07T06:32:05;14.02;;;10.45;;
46040;SDS011;31779;49.124;19.190;2022-12-07T06:34:33;43.17;;;24.52;;
46040;SDS011;31779;49.124;19.190;2022-12-07T06:37:04;33.97;;;20.23;;
46040;SDS011;31779;49.124;19.190;2022-12-07T06:39:32;13.10;;;7.97;;
46040;SDS011;31779;49.124;19.190;2022-12-07T06:41:59;10.15;;;7.70;;
46040;SDS011;31779;49.124;19.190;2022-12-07T06:44:27;20.63;;;12.50;;
46040;SDS011;31779;49.124;19.190;2022-12-07T06:46:55;17.10;;;12.02;;
46040;SDS011;31779;49.124;19.190;2022-12-07T06:49:44;16.55;;;12.13;;
46040;SDS011;31779;49.124;19.190;2022-12-07T06:52:12;18.73;;;13.43;;
46040;SDS011;31779;49.124;19.190;2022-12-07T06:54:40;18.58;;;13.77;;
46040;SDS011;31779;49.124;19.190;2022-12-07T06:57:08;14.48;;;12.55;;
46040;SDS011;31779;49.124;19.190;2022-12-07T06:59:36;14.57;;;11.75;;
46040;SDS011;31779;49.124;19.190;2022-12-07T07:02:04;22.35;;;15.07;;
46040;SDS011;31779;49.124;19.190;2022-12-07T07:04:33;12.55;;;11.20;;
46040;SDS011;31779;49.124;19.190;2022-12-07T07:07:00;18.83;;;13.45;;
46040;SDS011;31779;49.124;19.190;2022-12-07T07:09:28;26.92;;;17.55;;
46040;SDS011;31779;49.124;19.190;2022-12-07T07:11:56;20.67;;;16.90;;
46040;SDS011;31779;49.124;19.190;2022-12-07T07:14:24;19.45;;;14.23;;
46040;SDS011;31779;49.124;19.190;2022-12-07T07:16:52;21.00;;;14.30;;
46040;SDS011;31779;49.124;19.190;2022-12-07T07:19:22;14.95;;;12.60;;
46040;SDS011;31779;49.124;19.190;2022-12-07T07:21:50;18.92;;;13.75;;
46040;SDS011;31779;49.124;19.190;2022-12-07T07:24:18;12.80;;;11.05;;
46040;SDS011;31779;49.124;19.190;2022-12-07T07:26:46;18.83;;;14.52;;
46040;SDS011;31779;49.124;19.190;2022-12-07T07:29:14;18.30;;;13.13;;
46040;SDS011;31779;49.124;19.190;2022-12-07T07:31:42;21.88;;;15.20;;
46040;SDS011;31779;49.124;19.190;2022-12-07T07:34:11;22.98;;;15.20;;
46040;SDS011;31779;49.124;19.190;2022-12-07T07:36:39;19.50;;;14.40;;
46040;SDS011;31779;49.124;19.190;2022-12-07T07:39:07;29.95;;;17.08;;
46040;SDS011;31779;49.124;19.190;2022-12-07T07:41:36;20.23;;;12.05;;
46040;SDS011;31779;49.124;19.190;2022-12-07T07:44:04;15.05;;;11.68;;
46040;SDS011;31779;49.124;19.190;2022-12-07T07:46:32;14.15;;;11.98;;
46040;SDS011;31779;49.124;19.190;2022-12-07T07:49:00;11.38;;;9.48;;
46040;SDS011;31779;49.124;19.190;2022-12-07T07:51:28;12.60;;;10.80;;
46040;SDS011;31779;49.124;19.190;2022-12-07T07:53:56;48.15;;;31.58;;
46040;SDS011;31779;49.124;19.190;2022-12-07T07:56:24;30.52;;;20.25;;
46040;SDS011;31779;49.124;19.190;2022-12-07T07:58:52;19.80;;;14.23;;
46040;SDS011;31779;49.124;19.190;2022-12-07T08:01:20;21.67;;;16.55;;
46040;SDS011;31779;49.124;19.190;2022-12-07T08:03:48;20.30;;;15.60;;
46040;SDS011;31779;49.124;19.190;2022-12-07T08:06:17;8.70;;;7.85;;
46040;SDS011;31779;49.124;19.190;2022-12-07T08:08:45;8.93;;;8.02;;
46040;SDS011;31779;49.124;19.190;2022-12-07T08:11:13;11.38;;;10.00;;
46040;SDS011;31779;49.124;19.190;2022-12-07T08:13:47;15.73;;;13.00;;
46040;SDS011;31779;49.124;19.190;2022-12-07T08:16:15;38.63;;;29.92;;
46040;SDS011;31779;49.124;19.190;2022-12-07T08:18:44;31.98;;;27.02;;
46040;SDS011;31779;49.124;19.190;2022-12-07T08:21:13;20.42;;;16.73;;
46040;SDS011;31779;49.124;19.190;2022-12-07T08:23:43;18.42;;;16.52;;
46040;SDS011;31779;49.124;19.190;2022-12-07T08:26:12;15.80;;;12.57;;
46040;SDS011;31779;49.124;19.190;2022-12-07T08:28:42;12.50;;;11.07;;
46040;SDS011;31779;49.124;19.190;2022-12-07T08:31:12;17.75;;;14.15;;
46040;SDS011;31779;49.124;19.190;2022-12-07T08:33:44;10.57;;;9.43;;
46040;SDS011;31779;49.124;19.190;2022-12-07T08:36:13;11.97;;;10.57;;
46040;SDS011;31779;49.124;19.190;2022-12-07T08:38:43;14.27;;;10.07;;
46040;SDS011;31779;49.124;19.190;2022-12-07T08:41:31;11.02;;;9.98;;
46040;SDS011;31779;49.124;19.190;2022-12-07T08:43:59;11.57;;;9.57;;
46040;SDS011;31779;49.124;19.190;2022-12-07T08:46:35;6.47;;;5.88;;
46040;SDS011;31779;49.124;19.190;2022-12-07T08:49:16;8.60;;;7.55;;
46040;SDS011;31779;49.124;19.190;2022-12-07T08:51:49;7.78;;;6.15;;
46040;SDS011;31779;49.124;19.190;2022-12-07T08:54:18;5.85;;;5.35;;
46040;SDS011;31779;49.124;19.190;2022-12-07T08:56:46;7.22;;;6.53;;
46040;SDS011;31779;49.124;19.190;2022-12-07T08:59:24;5.82;;;5.32;;
46040;SDS011;31779;49.124;19.190;2022-12-07T09:01:53;7.88;;;6.78;;
46040;SDS011;31779;49.124;19.190;2022-12-07T09:04:22;6.30;;;5.75;;
46040;SDS011;31779;49.124;19.190;2022-12-07T09:06:50;7.65;;;6.95;;
46040;SDS011;31779;49.124;19.190;2022-12-07T09:09:18;7.05;;;6.05;;
46040;SDS011;31779;49.124;19.190;2022-12-07T09:11:46;7.20;;;6.45;;
46040;SDS011;31779;49.124;19.190;2022-12-07T09:14:14;7.00;;;6.25;;
46040;SDS011;31779;49.124;19.190;2022-12-07T09:16:43;6.50;;;5.90;;
46040;SDS011;31779;49.124;19.190;2022-12-07T09:19:11;5.80;;;5.25;;
46040;SDS011;31779;49.124;19.190;2022-12-07T09:21:40;7.28;;;6.63;;
46040;SDS011;31779;49.124;19.190;2022-12-07T09:24:08;6.72;;;6.10;;
46040;SDS011;31779;49.124;19.190;2022-12-07T09:26:37;5.65;;;5.18;;
46040;SDS011;31779;49.124;19.190;2022-12-07T09:29:07;8.10;;;6.47;;
46040;SDS011;31779;49.124;19.190;2022-12-07T09:31:36;7.72;;;5.82;;
46040;SDS011;31779;49.124;19.190;2022-12-07T09:34:04;6.13;;;5.63;;
46040;SDS011;31779;49.124;19.190;2022-12-07T09:36:33;5.63;;;5.18;;
46040;SDS011;31779;49.124;19.190;2022-12-07T09:39:02;6.72;;;6.22;;
46040;SDS011;31779;49.124;19.190;2022-12-07T09:41:31;6.07;;;5.55;;
46040;SDS011;31779;49.124;19.190;2022-12-07T09:44:06;6.05;;;5.55;;
46040;SDS011;31779;49.124;19.190;2022-12-07T09:46:40;5.47;;;5.07;;
46040;SDS011;31779;49.124;19.190;2022-12-07T09:49:14;6.82;;;6.22;;
46040;SDS011;31779;49.124;19.190;2022-12-07T09:51:45;6.20;;;5.60;;
46040;SDS011;31779;49.124;19.190;2022-12-07T09:54:14;8.65;;;7.68;;
46040;SDS011;31779;49.124;19.190;2022-12-07T09:56:44;10.95;;;8.98;;
46040;SDS011;31779;49.124;19.190;2022-12-07T09:59:13;7.55;;;6.75;;
46040;SDS011;31779;49.124;19.190;2022-12-07T10:01:46;6.13;;;5.57;;
46040;SDS011;31779;49.124;19.190;2022-12-07T10:04:20;5.97;;;5.53;;
46040;SDS011;31779;49.124;19.190;2022-12-07T10:06:51;6.70;;;6.15;;
46040;SDS011;31779;49.124;19.190;2022-12-07T10:09:20;7.75;;;7.05;;
46040;SDS011;31779;49.124;19.190;2022-12-07T10:14:37;5.95;;;5.38;;
46040;SDS011;31779;49.124;19.190;2022-12-07T10:17:38;6.13;;;5.53;;
46040;SDS011;31779;49.124;19.190;2022-12-07T10:20:15;7.75;;;7.05;;
46040;SDS011;31779;49.124;19.190;2022-12-07T10:22:57;6.95;;;6.30;;
46040;SDS011;31779;49.124;19.190;2022-12-07T10:25:34;7.50;;;6.80;;
46040;SDS011;31779;49.124;19.190;2022-12-07T10:33:34;6.50;;;5.90;;
46040;SDS011;31779;49.124;19.190;2022-12-07T10:41:31;7.20;;;6.57;;
46040;SDS011;31779;49.124;19.190;2022-12-07T10:44:00;8.75;;;7.90;;
46040;SDS011;31779;49.124;19.190;2022-12-07T10:52:19;7.55;;;6.20;;
46040;SDS011;31779;49.124;19.190;2022-12-07T10:58:00;7.15;;;6.55;;
46040;SDS011;31779;49.124;19.190;2022-12-07T11:00:24;7.40;;;6.70;;
46040;SDS011;31779;49.124;19.190;2022-12-07T11:11:14;6.30;;;5.70;;
46040;SDS011;31779;49.124;19.190;2022-12-07T11:13:58;8.13;;;7.32;;
46040;SDS011;31779;49.124;19.190;2022-12-07T11:16:47;7.20;;;6.55;;
46040;SDS011;31779;49.124;19.190;2022-12-07T11:23:14;7.65;;;6.95;;
46040;SDS011;31779;49.124;19.190;2022-12-07T11:31:54;6.38;;;5.80;;
46040;SDS011;31779;49.124;19.190;2022-12-07T11:37:33;5.97;;;5.57;;
46040;SDS011;31779;49.124;19.190;2022-12-07T11:40:13;7.50;;;6.90;;
46040;SDS011;31779;49.124;19.190;2022-12-07T11:42:55;8.52;;;7.68;;
46040;SDS011;31779;49.124;19.190;2022-12-07T11:45:27;8.05;;;7.25;;
46040;SDS011;31779;49.124;19.190;2022-12-07T11:48:01;7.10;;;6.40;;
46040;SDS011;31779;49.124;19.190;2022-12-07T11:50:47;6.65;;;6.05;;
46040;SDS011;31779;49.124;19.190;2022-12-07T11:53:22;7.40;;;6.80;;
46040;SDS011;31779;49.124;19.190;2022-12-07T11:56:03;6.30;;;5.70;;
46040;SDS011;31779;49.124;19.190;2022-12-07T12:01:26;6.57;;;5.93;;
46040;SDS011;31779;49.124;19.190;2022-12-07T12:03:58;7.30;;;6.70;;
46040;SDS011;31779;49.124;19.190;2022-12-07T12:06:41;6.60;;;6.10;;
46040;SDS011;31779;49.124;19.190;2022-12-07T12:12:07;6.63;;;6.03;;
46040;SDS011;31779;49.124;19.190;2022-12-07T12:17:49;6.32;;;5.75;;
46040;SDS011;31779;49.124;19.190;2022-12-07T12:20:36;6.85;;;6.25;;
46040;SDS011;31779;49.124;19.190;2022-12-07T12:26:00;5.22;;;4.80;;
46040;SDS011;31779;49.124;19.190;2022-12-07T12:31:29;6.68;;;6.07;;
46040;SDS011;31779;49.124;19.190;2022-12-07T12:36:57;6.20;;;5.65;;
46040;SDS011;31779;49.124;19.190;2022-12-07T12:39:26;8.30;;;6.88;;
46040;SDS011;31779;49.124;19.190;2022-12-07T12:41:55;7.50;;;6.82;;
46040;SDS011;31779;49.124;19.190;2022-12-07T12:50:24;6.03;;;5.43;;
46040;SDS011;31779;49.124;19.190;2022-12-07T12:53:12;7.40;;;6.78;;
46040;SDS011;31779;49.124;19.190;2022-12-07T12:58:22;6.97;;;6.20;;
46040;SDS011;31779;49.124;19.190;2022-12-07T13:03:57;6.88;;;6.28;;
46040;SDS011;31779;49.124;19.190;2022-12-07T13:08:54;7.57;;;6.22;;
46040;SDS011;31779;49.124;19.190;2022-12-07T13:11:32;6.88;;;5.68;;
46040;SDS011;31779;49.124;19.190;2022-12-07T13:17:11;7.30;;;6.60;;
46040;SDS011;31779;49.124;19.190;2022-12-07T13:20:03;6.65;;;5.75;;
46040;SDS011;31779;49.124;19.190;2022-12-07T13:22:40;7.15;;;6.55;;
46040;SDS011;31779;49.124;19.190;2022-12-07T13:33:36;6.55;;;5.95;;
46040;SDS011;31779;49.124;19.190;2022-12-07T13:36:04;7.18;;;6.47;;
46040;SDS011;31779;49.124;19.190;2022-12-07T13:38:51;6.90;;;6.07;;
46040;SDS011;31779;49.124;19.190;2022-12-07T13:41:29;6.80;;;6.15;;
46040;SDS011;31779;49.124;19.190;2022-12-07T13:49:46;6.45;;;5.85;;
46040;SDS011;31779;49.124;19.190;2022-12-07T13:52:21;7.32;;;6.63;;
46040;SDS011;31779;49.124;19.190;2022-12-07T13:55:08;7.00;;;6.38;;
46040;SDS011;31779;49.124;19.190;2022-12-07T13:57:42;7.15;;;6.45;;
46040;SDS011;31779;49.124;19.190;2022-12-07T14:00:16;8.75;;;7.95;;
46040;SDS011;31779;49.124;19.190;2022-12-07T14:05:40;7.90;;;7.15;;
46040;SDS011;31779;49.124;19.190;2022-12-07T14:10:41;7.57;;;6.07;;
46040;SDS011;31779;49.124;19.190;2022-12-07T14:13:31;10.63;;;8.82;;
46040;SDS011;31779;49.124;19.190;2022-12-07T14:16:03;12.68;;;9.40;;
46040;SDS011;31779;49.124;19.190;2022-12-07T14:18:52;10.98;;;9.10;;
46040;SDS011;31779;49.124;19.190;2022-12-07T14:21:22;8.52;;;7.63;;
46040;SDS011;31779;49.124;19.190;2022-12-07T14:24:11;9.45;;;8.38;;
46040;SDS011;31779;49.124;19.190;2022-12-07T14:26:42;10.00;;;8.95;;
46040;SDS011;31779;49.124;19.190;2022-12-07T14:29:19;9.17;;;7.67;;
46040;SDS011;31779;49.124;19.190;2022-12-07T14:32:00;8.65;;;7.78;;
46040;SDS011;31779;49.124;19.190;2022-12-07T14:35:17;11.38;;;8.60;;
46040;SDS011;31779;49.124;19.190;2022-12-07T14:37:47;8.88;;;7.72;;
46040;SDS011;31779;49.124;19.190;2022-12-07T14:40:20;7.85;;;7.05;;
46040;SDS011;31779;49.124;19.190;2022-12-07T14:42:51;11.57;;;9.32;;
46040;SDS011;31779;49.124;19.190;2022-12-07T14:45:23;10.50;;;8.07;;
46040;SDS011;31779;49.124;19.190;2022-12-07T14:47:52;9.75;;;8.20;;
46040;SDS011;31779;49.124;19.190;2022-12-07T14:50:48;11.02;;;9.90;;
46040;SDS011;31779;49.124;19.190;2022-12-07T14:53:48;7.20;;;6.55;;
46040;SDS011;31779;49.124;19.190;2022-12-07T14:56:23;9.05;;;8.07;;
46040;SDS011;31779;49.124;19.190;2022-12-07T14:58:51;10.73;;;8.07;;
46040;SDS011;31779;49.124;19.190;2022-12-07T15:01:20;9.85;;;8.55;;
46040;SDS011;31779;49.124;19.190;2022-12-07T15:03:49;9.85;;;8.80;;
46040;SDS011;31779;49.124;19.190;2022-12-07T15:06:17;9.18;;;7.55;;
46040;SDS011;31779;49.124;19.190;2022-12-07T15:08:46;9.27;;;8.30;;
46040;SDS011;31779;49.124;19.190;2022-12-07T15:11:17;9.65;;;7.10;;
46040;SDS011;31779;49.124;19.190;2022-12-07T15:13:45;10.38;;;8.77;;
46040;SDS011;31779;49.124;19.190;2022-12-07T15:16:32;12.02;;;9.90;;
46040;SDS011;31779;49.124;19.190;2022-12-07T15:19:21;13.38;;;9.77;;
46040;SDS011;31779;49.124;19.190;2022-12-07T15:21:55;10.13;;;9.07;;
46040;SDS011;31779;49.124;19.190;2022-12-07T15:24:24;9.82;;;8.52;;
46040;SDS011;31779;49.124;19.190;2022-12-07T15:26:52;10.68;;;9.25;;
46040;SDS011;31779;49.124;19.190;2022-12-07T15:29:22;10.60;;;9.50;;
46040;SDS011;31779;49.124;19.190;2022-12-07T15:31:50;14.57;;;11.80;;
46040;SDS011;31779;49.124;19.190;2022-12-07T15:34:26;11.30;;;10.18;;
46040;SDS011;31779;49.124;19.190;2022-12-07T15:37:06;14.80;;;11.43;;
46040;SDS011;31779;49.124;19.190;2022-12-07T15:39:35;14.15;;;10.73;;
46040;SDS011;31779;49.124;19.190;2022-12-07T15:42:05;17.27;;;13.90;;
46040;SDS011;31779;49.124;19.190;2022-12-07T15:44:32;20.63;;;14.70;;
46040;SDS011;31779;49.124;19.190;2022-12-07T15:47:41;19.60;;;14.27;;
46040;SDS011;31779;49.124;19.190;2022-12-07T15:50:30;20.45;;;14.65;;
46040;SDS011;31779;49.124;19.190;2022-12-07T15:53:01;16.58;;;14.02;;
46040;SDS011;31779;49.124;19.190;2022-12-07T15:55:29;12.35;;;11.15;;
46040;SDS011;31779;49.124;19.190;2022-12-07T15:57:57;11.00;;;9.90;;
46040;SDS011;31779;49.124;19.190;2022-12-07T16:00:26;11.60;;;9.65;;
46040;SDS011;31779;49.124;19.190;2022-12-07T16:02:54;10.98;;;9.88;;
46040;SDS011;31779;49.124;19.190;2022-12-07T16:05:23;10.13;;;9.13;;
46040;SDS011;31779;49.124;19.190;2022-12-07T16:07:51;9.88;;;8.75;;
46040;SDS011;31779;49.124;19.190;2022-12-07T16:10:19;11.05;;;8.77;;
46040;SDS011;31779;49.124;19.190;2022-12-07T16:12:49;10.03;;;8.97;;
46040;SDS011;31779;49.124;19.190;2022-12-07T16:15:17;11.20;;;10.07;;
46040;SDS011;31779;49.124;19.190;2022-12-07T16:17:51;11.88;;;10.10;;
46040;SDS011;31779;49.124;19.190;2022-12-07T16:20:19;14.13;;;10.98;;
46040;SDS011;31779;49.124;19.190;2022-12-07T16:22:50;13.88;;;10.25;;
46040;SDS011;31779;49.124;19.190;2022-12-07T16:25:19;11.52;;;10.10;;
46040;SDS011;31779;49.124;19.190;2022-12-07T16:27:47;15.10;;;11.13;;
46040;SDS011;31779;49.124;19.190;2022-12-07T16:30:15;10.82;;;8.95;;
46040;SDS011;31779;49.124;19.190;2022-12-07T16:32:44;11.30;;;10.07;;
46040;SDS011;31779;49.124;19.190;2022-12-07T16:35:12;11.00;;;9.77;;
46040;SDS011;31779;49.124;19.190;2022-12-07T16:37:41;11.15;;;9.98;;
46040;SDS011;31779;49.124;19.190;2022-12-07T16:40:10;10.82;;;9.10;;
46040;SDS011;31779;49.124;19.190;2022-12-07T16:42:40;9.50;;;8.50;;
46040;SDS011;31779;49.124;19.190;2022-12-07T16:45:08;10.02;;;8.85;;
46040;SDS011;31779;49.124;19.190;2022-12-07T16:47:38;10.65;;;8.13;;
46040;SDS011;31779;49.124;19.190;2022-12-07T16:50:06;8.75;;;7.85;;
46040;SDS011;31779;49.124;19.190;2022-12-07T16:52:35;12.40;;;10.88;;
46040;SDS011;31779;49.124;19.190;2022-12-07T16:55:04;10.75;;;9.63;;
46040;SDS011;31779;49.124;19.190;2022-12-07T16:57:32;10.82;;;9.15;;
46040;SDS011;31779;49.124;19.190;2022-12-07T17:00:00;11.48;;;8.63;;
46040;SDS011;31779;49.124;19.190;2022-12-07T17:02:30;9.85;;;8.55;;